createdAt,value
2023-02-25T00:00:01.762Z,3.63
2023-02-25T00:01:01.230Z,3.63
2023-02-25T00:02:04.215Z,3.64
2023-02-25T00:03:01.985Z,3.62
2023-02-25T00:04:02.190Z,3.63
2023-02-25T00:05:00.500Z,3.62
2023-02-25T00:06:00.910Z,3.62
2023-02-25T00:07:01.232Z,3.62
2023-02-25T00:08:00.555Z,3.60
2023-02-25T00:09:00.907Z,3.60
2023-02-25T00:10:01.234Z,3.62
2023-02-25T00:11:00.544Z,3.63
2023-02-25T00:12:00.913Z,3.62
2023-02-25T00:13:17.106Z,3.62
2023-02-25T00:14:01.382Z,3.60
2023-02-25T00:15:00.776Z,3.60
2023-02-25T00:16:02.139Z,3.59
2023-02-25T00:17:00.496Z,3.59
2023-02-25T00:18:00.914Z,3.54
2023-02-25T00:19:01.289Z,3.62
2023-02-25T00:20:00.520Z,3.60
2023-02-25T00:21:00.936Z,3.60
2023-02-25T00:22:00.235Z,3.56
2023-02-25T00:23:00.637Z,3.59
2023-02-25T00:24:15.326Z,3.57
2023-02-25T00:25:01.310Z,3.56
2023-02-25T00:26:01.594Z,3.57
2023-02-25T00:27:01.050Z,3.56
2023-02-25T00:28:00.356Z,3.56
2023-02-25T00:29:00.725Z,3.56
2023-02-25T00:30:01.296Z,3.56
2023-02-25T00:31:00.547Z,3.54
2023-02-25T00:32:00.973Z,3.56
2023-02-25T00:33:00.162Z,3.53
2023-02-25T00:34:01.482Z,3.53
2023-02-25T00:35:01.876Z,3.53
2023-02-25T00:36:00.292Z,3.53
2023-02-25T00:37:01.595Z,3.53
2023-02-25T00:38:14.866Z,3.54
2023-02-25T00:39:01.348Z,3.53
2023-02-25T00:40:00.739Z,3.56
2023-02-25T00:41:00.040Z,3.56
2023-02-25T00:42:00.609Z,3.50
2023-02-25T00:43:01.756Z,3.53
2023-02-25T00:44:01.089Z,3.45
2023-02-25T00:45:00.491Z,3.52
2023-02-25T00:46:00.914Z,3.50
2023-02-25T00:47:01.172Z,3.52
2023-02-25T00:48:00.632Z,3.53
2023-02-25T00:49:00.864Z,3.50
2023-02-25T00:50:01.198Z,3.49
2023-02-25T00:51:01.574Z,3.49
2023-02-25T00:52:00.279Z,3.46
2023-02-25T00:53:01.238Z,3.46
2023-02-25T00:54:00.690Z,3.52
2023-02-25T00:55:00.955Z,3.45
2023-02-25T00:56:00.349Z,3.49
2023-02-25T00:57:00.723Z,3.49
2023-02-25T00:58:00.093Z,3.50
2023-02-25T00:59:00.430Z,3.50
2023-02-25T00:59:59.799Z,3.52
2023-02-25T01:01:00.164Z,3.53
2023-02-25T01:02:00.582Z,3.53
2023-02-25T01:03:00.889Z,3.52
2023-02-25T01:04:01.172Z,3.50
2023-02-25T01:05:00.657Z,3.52
2023-02-25T01:06:00.808Z,3.49
2023-02-25T01:07:03.410Z,3.50
2023-02-25T01:08:01.612Z,3.52
2023-02-25T01:08:59.916Z,3.50
2023-02-25T01:10:00.309Z,3.52
2023-02-25T01:11:00.801Z,3.50
2023-02-25T01:11:59.969Z,3.50
2023-02-25T01:13:01.305Z,3.50
2023-02-25T01:14:00.754Z,3.52
2023-02-25T01:15:00.979Z,3.52
2023-02-25T01:16:00.491Z,3.49
2023-02-25T01:16:59.729Z,3.50
2023-02-25T01:18:00.133Z,3.49
2023-02-25T01:19:00.429Z,3.46
2023-02-25T01:20:00.775Z,3.45
2023-02-25T01:21:01.156Z,3.46
2023-02-25T01:22:00.589Z,3.49
2023-02-25T01:23:00.869Z,3.45
2023-02-25T01:24:01.272Z,3.45
2023-02-25T01:24:59.595Z,3.45
2023-02-25T01:26:00.138Z,3.42
2023-02-25T01:27:01.338Z,3.41
2023-02-25T01:28:00.663Z,3.41
2023-02-25T01:29:00.084Z,3.42
2023-02-25T01:30:00.374Z,3.46
2023-02-25T01:30:59.859Z,3.41
2023-02-25T01:32:01.353Z,3.41
2023-02-25T01:33:00.509Z,3.41
2023-02-25T01:33:59.885Z,3.41
2023-02-25T01:35:01.228Z,3.41
2023-02-25T01:36:00.574Z,3.33
2023-02-25T01:37:00.948Z,3.37
2023-02-25T01:38:00.261Z,3.33
2023-02-25T01:39:00.668Z,3.34
2023-02-25T01:40:01.036Z,3.35
2023-02-25T01:41:00.313Z,3.34
2023-02-25T01:42:00.746Z,3.34
2023-02-25T01:43:00.138Z,3.35
2023-02-25T01:43:59.416Z,3.34
2023-02-25T01:45:00.811Z,3.34
2023-02-25T01:45:59.132Z,3.35
2023-02-25T01:47:00.489Z,3.31
2023-02-25T01:48:00.832Z,3.26
2023-02-25T01:49:00.155Z,3.28
2023-02-25T01:50:00.561Z,3.25
2023-02-25T01:51:00.960Z,3.25
2023-02-25T01:52:00.193Z,3.31
2023-02-25T01:52:59.609Z,3.25
2023-02-25T01:53:59.984Z,3.26
2023-02-25T01:54:59.329Z,3.26
2023-02-25T01:56:00.033Z,3.25
2023-02-25T01:56:59.863Z,3.30
2023-02-25T01:57:59.761Z,3.25
2023-02-25T01:58:59.056Z,3.25
2023-02-25T02:00:00.384Z,3.25
2023-02-25T02:00:59.872Z,3.23
2023-02-25T02:02:00.110Z,3.22
2023-02-25T02:03:00.530Z,3.22
2023-02-25T02:03:59.862Z,3.22
2023-02-25T02:04:59.314Z,3.26
2023-02-25T02:06:00.546Z,3.20
2023-02-25T02:06:58.938Z,3.22
2023-02-25T02:08:00.260Z,3.19
2023-02-25T02:08:59.840Z,3.20
2023-02-25T02:09:59.070Z,3.19
2023-02-25T02:11:00.364Z,3.20
2023-02-25T02:12:00.730Z,3.19
2023-02-25T02:12:59.134Z,3.19
2023-02-25T02:14:00.449Z,3.19
2023-02-25T02:14:58.860Z,3.22
2023-02-25T02:15:59.268Z,3.22
2023-02-25T02:17:00.588Z,3.17
2023-02-25T02:17:59.029Z,3.19
2023-02-25T02:18:59.348Z,3.17
2023-02-25T02:19:58.684Z,3.15
2023-02-25T02:20:59.099Z,3.15
2023-02-25T02:21:59.474Z,3.13
2023-02-25T02:22:58.852Z,3.13
2023-02-25T02:24:00.133Z,3.13
2023-02-25T02:24:59.937Z,3.13
2023-02-25T02:25:58.940Z,3.15
2023-02-25T02:26:59.412Z,3.15
2023-02-25T02:27:58.573Z,3.10
2023-02-25T02:28:59.021Z,3.10
2023-02-25T02:29:59.344Z,3.15
2023-02-25T02:30:58.734Z,3.12
2023-02-25T02:31:59.277Z,3.08
2023-02-25T02:32:59.438Z,3.10
2023-02-25T02:33:58.793Z,3.08
2023-02-25T02:34:59.159Z,3.12
2023-02-25T02:35:58.576Z,3.12
2023-02-25T02:36:58.946Z,3.08
2023-02-25T02:37:59.349Z,3.05
2023-02-25T02:38:58.668Z,3.05
2023-02-25T02:39:59.069Z,3.05
2023-02-25T02:40:58.429Z,3.08
2023-02-25T02:41:59.829Z,3.07
2023-02-25T02:42:59.238Z,3.04
2023-02-25T02:43:59.519Z,3.15
2023-02-25T02:44:58.987Z,3.07
2023-02-25T02:45:58.430Z,3.05
2023-02-25T02:46:58.702Z,3.07
2023-02-25T02:47:59.085Z,3.10
2023-02-25T02:48:58.539Z,3.08
2023-02-25T02:49:58.817Z,3.10
2023-02-25T02:50:59.234Z,3.07
2023-02-25T02:51:58.597Z,3.05
2023-02-25T02:52:58.914Z,3.05
2023-02-25T02:53:58.224Z,3.05
2023-02-25T02:54:58.633Z,3.07
2023-02-25T02:55:58.952Z,3.10
2023-02-25T02:56:59.248Z,3.07
2023-02-25T02:57:58.669Z,3.05
2023-02-25T02:58:59.068Z,3.04
2023-02-25T02:59:58.415Z,3.04
2023-02-25T03:00:58.874Z,3.02
2023-02-25T03:01:58.122Z,3.04
2023-02-25T03:02:58.464Z,3.04
2023-02-25T03:03:58.948Z,3.04
2023-02-25T03:04:58.191Z,3.04
2023-02-25T03:05:58.592Z,3.12
2023-02-25T03:06:58.993Z,3.08
2023-02-25T03:07:58.396Z,3.07
2023-02-25T03:08:58.663Z,3.05
2023-02-25T03:09:58.004Z,3.01
2023-02-25T03:10:58.401Z,3.07
2023-02-25T03:11:59.722Z,3.04
2023-02-25T03:12:58.175Z,3.04
2023-02-25T03:13:58.751Z,3.02
2023-02-25T03:14:58.998Z,3.01
2023-02-25T03:15:58.035Z,2.99
2023-02-25T03:16:58.580Z,3.01
2023-02-25T03:17:58.852Z,3.02
2023-02-25T03:18:58.192Z,3.01
2023-02-25T03:19:58.559Z,3.04
2023-02-25T03:20:57.904Z,3.02
2023-02-25T03:21:58.269Z,3.04
2023-02-25T03:22:58.689Z,3.01
2023-02-25T03:23:58.127Z,3.01
2023-02-25T03:24:58.607Z,3.01
2023-02-25T03:25:57.846Z,3.01
2023-02-25T03:26:58.239Z,3.01
2023-02-25T03:27:58.612Z,2.99
2023-02-25T03:28:57.999Z,3.01
2023-02-25T03:29:58.429Z,3.08
2023-02-25T03:30:57.822Z,2.99
2023-02-25T03:31:58.233Z,2.98
2023-02-25T03:32:58.664Z,2.99
2023-02-25T03:33:57.994Z,2.98
2023-02-25T03:34:58.403Z,2.98
2023-02-25T03:35:57.773Z,2.99
2023-02-25T03:36:58.215Z,2.98
2023-02-25T03:37:58.595Z,2.99
2023-02-25T03:38:57.996Z,2.98
2023-02-25T03:39:59.279Z,2.98
2023-02-25T03:40:57.665Z,2.98
2023-02-25T03:41:58.112Z,2.84
2023-02-25T03:42:58.560Z,2.97
2023-02-25T03:43:57.852Z,2.94
2023-02-25T03:44:58.250Z,2.94
2023-02-25T03:45:57.716Z,2.95
2023-02-25T03:46:57.985Z,2.95
2023-02-25T03:47:58.403Z,2.98
2023-02-25T03:48:57.729Z,2.97
2023-02-25T03:49:58.122Z,2.95
2023-02-25T03:50:57.500Z,2.95
2023-02-25T03:51:57.872Z,2.95
2023-02-25T03:52:58.310Z,2.97
2023-02-25T03:53:57.820Z,2.95
2023-02-25T03:54:58.976Z,2.95
2023-02-25T03:55:57.428Z,3.04
2023-02-25T03:56:58.720Z,2.97
2023-02-25T03:57:58.185Z,2.97
2023-02-25T03:58:57.597Z,2.94
2023-02-25T03:59:58.006Z,2.97
2023-02-25T04:00:58.371Z,2.98
2023-02-25T04:01:57.670Z,2.98
2023-02-25T04:02:58.075Z,2.99
2023-02-25T04:03:57.482Z,2.99
2023-02-25T04:04:58.851Z,3.01
2023-02-25T04:05:58.340Z,2.99
2023-02-25T04:06:58.586Z,2.97
2023-02-25T04:07:58.995Z,2.98
2023-02-25T04:08:57.376Z,2.99
2023-02-25T04:09:58.730Z,2.97
2023-02-25T04:10:58.224Z,2.98
2023-02-25T04:11:57.578Z,2.98
2023-02-25T04:12:57.964Z,2.97
2023-02-25T04:13:57.329Z,2.95
2023-02-25T04:14:57.788Z,2.98
2023-02-25T04:15:58.173Z,2.98
2023-02-25T04:16:57.518Z,2.97
2023-02-25T04:17:57.987Z,2.97
2023-02-25T04:18:57.417Z,2.95
2023-02-25T04:19:58.645Z,2.97
2023-02-25T04:20:58.028Z,2.99
2023-02-25T04:21:57.490Z,2.95
2023-02-25T04:22:58.854Z,2.97
2023-02-25T04:23:57.338Z,2.97
2023-02-25T04:24:58.668Z,2.92
2023-02-25T04:25:57.083Z,2.92
2023-02-25T04:26:57.499Z,2.92
2023-02-25T04:27:58.946Z,2.94
2023-02-25T04:28:57.274Z,2.92
2023-02-25T04:29:57.689Z,2.94
2023-02-25T04:30:57.204Z,2.95
2023-02-25T04:31:57.625Z,2.98
2023-02-25T04:32:57.934Z,2.95
2023-02-25T04:33:57.010Z,2.94
2023-02-25T04:34:57.507Z,2.95
2023-02-25T04:35:57.789Z,2.92
2023-02-25T04:36:57.185Z,2.92
2023-02-25T04:37:57.590Z,2.92
2023-02-25T04:38:56.851Z,2.90
2023-02-25T04:39:57.226Z,2.87
2023-02-25T04:40:57.758Z,2.92
2023-02-25T04:41:56.941Z,2.89
2023-02-25T04:42:58.261Z,2.90
2023-02-25T04:43:57.735Z,2.83
2023-02-25T04:44:58.010Z,2.90
2023-02-25T04:45:58.421Z,2.90
2023-02-25T04:46:56.815Z,2.90
2023-02-25T04:47:57.159Z,2.90
2023-02-25T04:48:57.520Z,2.89
2023-02-25T04:49:56.879Z,2.92
2023-02-25T04:50:57.245Z,2.90
2023-02-25T04:51:57.661Z,2.89
2023-02-25T04:52:57.887Z,2.89
2023-02-25T04:53:58.300Z,2.89
2023-02-25T04:54:57.592Z,2.86
2023-02-25T04:55:57.069Z,2.86
2023-02-25T04:56:58.330Z,2.87
2023-02-25T04:57:56.925Z,2.87
2023-02-25T04:58:57.115Z,2.89
2023-02-25T04:59:58.432Z,2.87
2023-02-25T05:00:57.781Z,2.81
2023-02-25T05:01:57.189Z,2.81
2023-02-25T05:02:57.952Z,2.80
2023-02-25T05:03:57.821Z,2.80
2023-02-25T05:04:57.256Z,2.80
2023-02-25T05:05:56.708Z,2.77
2023-02-25T05:06:57.862Z,2.76
2023-02-25T05:07:57.362Z,2.76
2023-02-25T05:08:56.641Z,2.77
2023-02-25T05:09:56.917Z,2.76
2023-02-25T05:10:57.257Z,2.77
2023-02-25T05:11:57.523Z,2.76
2023-02-25T05:12:57.864Z,2.77
2023-02-25T05:13:57.283Z,2.79
2023-02-25T05:14:56.605Z,2.76
2023-02-25T05:15:57.916Z,2.77
2023-02-25T05:16:58.227Z,2.73
2023-02-25T05:17:57.492Z,2.76
2023-02-25T05:18:56.894Z,2.79
2023-02-25T05:19:57.366Z,2.77
2023-02-25T05:20:56.476Z,2.76
2023-02-25T05:21:57.779Z,2.76
2023-02-25T05:22:57.264Z,2.74
2023-02-25T05:23:57.435Z,2.74
2023-02-25T05:24:56.860Z,2.73
2023-02-25T05:25:57.158Z,2.77
2023-02-25T05:26:56.498Z,2.79
2023-02-25T05:27:57.803Z,2.79
2023-02-25T05:28:57.190Z,2.77
2023-02-25T05:29:56.554Z,2.77
2023-02-25T05:30:56.966Z,2.77
2023-02-25T05:31:56.373Z,2.81
2023-02-25T05:32:56.591Z,2.81
2023-02-25T05:33:56.931Z,2.81
2023-02-25T05:34:56.581Z,2.83
2023-02-25T05:35:56.553Z,2.80
2023-02-25T05:36:57.027Z,2.81
2023-02-25T05:37:57.162Z,2.83
2023-02-25T05:38:56.590Z,2.83
2023-02-25T05:39:56.943Z,2.90
2023-02-25T05:40:56.272Z,2.80
2023-02-25T05:41:57.602Z,2.81
2023-02-25T05:42:56.371Z,2.86
2023-02-25T05:43:56.347Z,2.79
2023-02-25T05:44:56.734Z,2.77
2023-02-25T05:45:56.061Z,2.79
2023-02-25T05:46:56.510Z,2.79
2023-02-25T05:47:56.892Z,2.77
2023-02-25T05:48:56.142Z,2.77
2023-02-25T05:49:56.443Z,2.76
2023-02-25T05:50:56.788Z,2.76
2023-02-25T05:51:56.118Z,2.76
2023-02-25T05:52:57.488Z,2.77
2023-02-25T05:53:56.882Z,2.76
2023-02-25T05:54:56.273Z,2.77
2023-02-25T05:55:56.571Z,2.77
2023-02-25T05:56:55.960Z,2.71
2023-02-25T05:57:57.237Z,2.79
2023-02-25T05:58:57.649Z,2.77
2023-02-25T05:59:56.105Z,2.79
2023-02-25T06:00:56.526Z,2.80
2023-02-25T06:01:56.792Z,2.79
2023-02-25T06:02:56.227Z,2.80
2023-02-25T06:03:56.464Z,2.79
2023-02-25T06:04:55.784Z,2.80
2023-02-25T06:05:56.450Z,2.81
2023-02-25T06:06:56.580Z,2.77
2023-02-25T06:07:55.889Z,2.79
2023-02-25T06:08:56.280Z,2.79
2023-02-25T06:09:56.599Z,2.80
2023-02-25T06:10:57.064Z,2.81
2023-02-25T06:11:57.270Z,2.81
2023-02-25T06:12:56.591Z,2.80
2023-02-25T06:13:56.010Z,2.80
2023-02-25T06:14:56.413Z,2.84
2023-02-25T06:15:56.742Z,2.81
2023-02-25T06:16:56.198Z,2.81
2023-02-25T06:17:57.487Z,2.84
2023-02-25T06:18:55.853Z,2.84
2023-02-25T06:19:56.247Z,2.83
2023-02-25T06:20:56.543Z,2.84
2023-02-25T06:21:56.947Z,2.83
2023-02-25T06:22:56.659Z,2.86
2023-02-25T06:23:55.719Z,2.87
2023-02-25T06:24:57.115Z,2.84
2023-02-25T06:25:55.403Z,2.87
2023-02-25T06:26:55.773Z,2.86
2023-02-25T06:27:56.213Z,2.83
2023-02-25T06:28:55.578Z,2.84
2023-02-25T06:29:58.760Z,2.86
2023-02-25T06:30:56.355Z,2.87
2023-02-25T06:31:56.720Z,2.87
2023-02-25T06:32:57.033Z,2.87
2023-02-25T06:33:55.413Z,2.87
2023-02-25T06:34:55.857Z,2.77
2023-02-25T06:35:56.226Z,2.90
2023-02-25T06:36:55.604Z,2.92
2023-02-25T06:37:55.955Z,2.97
2023-02-25T06:38:56.271Z,2.90
2023-02-25T06:39:56.700Z,2.90
2023-02-25T06:40:56.156Z,2.89
2023-02-25T06:41:56.397Z,2.90
2023-02-25T06:42:56.788Z,2.89
2023-02-25T06:43:55.205Z,2.89
2023-02-25T06:44:55.566Z,2.87
2023-02-25T06:45:56.035Z,2.87
2023-02-25T06:46:55.396Z,2.87
2023-02-25T06:47:55.678Z,2.90
2023-02-25T06:48:56.062Z,2.90
2023-02-25T06:49:55.409Z,2.90
2023-02-25T06:50:55.767Z,2.87
2023-02-25T06:51:55.107Z,2.86
2023-02-25T06:52:55.713Z,2.89
2023-02-25T06:53:55.858Z,2.87
2023-02-25T06:54:55.169Z,2.86
2023-02-25T06:55:55.589Z,2.89
2023-02-25T06:56:56.011Z,2.87
2023-02-25T06:57:55.309Z,2.92
2023-02-25T06:58:55.730Z,2.92
2023-02-25T06:59:55.030Z,2.95
2023-02-25T07:00:55.484Z,2.98
2023-02-25T07:01:55.784Z,2.99
2023-02-25T07:02:55.386Z,2.98
2023-02-25T07:03:55.537Z,2.98
2023-02-25T07:04:56.058Z,2.99
2023-02-25T07:05:55.264Z,2.97
2023-02-25T07:06:55.668Z,3.01
2023-02-25T07:07:55.132Z,2.99
2023-02-25T07:08:55.398Z,3.01
2023-02-25T07:09:55.732Z,3.01
2023-02-25T07:10:55.114Z,3.01
2023-02-25T07:11:55.508Z,3.01
2023-02-25T07:12:54.824Z,3.04
2023-02-25T07:13:55.197Z,3.05
2023-02-25T07:14:55.649Z,3.04
2023-02-25T07:15:54.974Z,3.04
2023-02-25T07:16:55.792Z,3.04
2023-02-25T07:17:56.001Z,3.05
2023-02-25T07:18:55.032Z,3.05
2023-02-25T07:19:55.413Z,3.07
2023-02-25T07:20:54.773Z,3.05
2023-02-25T07:21:56.164Z,3.05
2023-02-25T07:22:55.523Z,3.08
2023-02-25T07:23:55.787Z,3.10
2023-02-25T07:24:56.203Z,3.13
2023-02-25T07:25:55.819Z,3.13
2023-02-25T07:26:55.906Z,3.12
2023-02-25T07:27:55.363Z,3.12
2023-02-25T07:28:55.628Z,3.13
2023-02-25T07:29:55.114Z,3.12
2023-02-25T07:30:55.584Z,3.08
2023-02-25T07:31:55.082Z,3.12
2023-02-25T07:32:55.191Z,3.10
2023-02-25T07:33:55.499Z,3.10
2023-02-25T07:34:54.867Z,3.12
2023-02-25T07:35:55.221Z,3.10
2023-02-25T07:36:55.482Z,3.12
2023-02-25T07:37:54.978Z,3.07
2023-02-25T07:38:55.322Z,3.08
2023-02-25T07:39:54.680Z,3.07
2023-02-25T07:40:55.024Z,3.12
2023-02-25T07:41:56.357Z,3.17
2023-02-25T07:42:54.741Z,2.99
2023-02-25T07:43:56.737Z,3.10
2023-02-25T07:44:54.466Z,3.13
2023-02-25T07:45:54.901Z,3.12
2023-02-25T07:46:55.260Z,3.13
2023-02-25T07:47:54.548Z,3.16
2023-02-25T07:48:54.922Z,3.16
2023-02-25T07:49:56.512Z,3.17
2023-02-25T07:50:58.692Z,3.15
2023-02-25T07:51:55.071Z,3.15
2023-02-25T07:52:54.640Z,3.12
2023-02-25T07:53:54.788Z,3.15
2023-02-25T07:54:55.177Z,3.08
2023-02-25T07:55:54.537Z,3.17
2023-02-25T07:56:54.853Z,3.19
2023-02-25T07:57:54.197Z,3.19
2023-02-25T07:58:54.563Z,3.20
2023-02-25T07:59:54.952Z,3.19
2023-02-25T08:00:54.374Z,3.20
2023-02-25T08:01:54.797Z,3.20
2023-02-25T08:02:55.221Z,3.20
2023-02-25T08:03:55.380Z,3.20
2023-02-25T08:04:54.817Z,3.20
2023-02-25T08:05:54.237Z,3.22
2023-02-25T08:06:55.469Z,3.23
2023-02-25T08:07:55.228Z,3.26
2023-02-25T08:08:55.151Z,3.28
2023-02-25T08:09:55.532Z,3.22
2023-02-25T08:10:55.908Z,3.28
2023-02-25T08:11:54.243Z,3.26
2023-02-25T08:12:54.624Z,3.25
2023-02-25T08:13:55.021Z,3.26
2023-02-25T08:14:54.328Z,3.25
2023-02-25T08:15:54.710Z,3.28
2023-02-25T08:16:54.040Z,3.25
2023-02-25T08:17:54.413Z,3.28
2023-02-25T08:18:54.808Z,3.28
2023-02-25T08:19:54.484Z,3.28
2023-02-25T08:20:54.503Z,3.31
2023-02-25T08:21:54.868Z,3.30
2023-02-25T08:22:54.203Z,3.31
2023-02-25T08:23:54.588Z,3.31
2023-02-25T08:24:53.875Z,3.33
2023-02-25T08:25:54.247Z,3.35
2023-02-25T08:26:54.619Z,3.34
2023-02-25T08:27:53.914Z,3.34
2023-02-25T08:28:54.300Z,3.37
2023-02-25T08:29:54.782Z,3.39
2023-02-25T08:30:54.131Z,3.41
2023-02-25T08:31:54.729Z,3.39
2023-02-25T08:32:54.837Z,3.39
2023-02-25T08:33:55.073Z,3.39
2023-02-25T08:34:54.471Z,3.35
2023-02-25T08:35:53.819Z,3.37
2023-02-25T08:36:54.129Z,3.37
2023-02-25T08:37:54.470Z,3.37
2023-02-25T08:38:53.804Z,3.37
2023-02-25T08:39:54.130Z,3.37
2023-02-25T08:40:54.585Z,3.39
2023-02-25T08:41:53.809Z,3.41
2023-02-25T08:42:54.187Z,3.39
2023-02-25T08:43:54.781Z,3.37
2023-02-25T08:44:53.898Z,3.37
2023-02-25T08:45:54.299Z,3.42
2023-02-25T08:46:53.766Z,3.41
2023-02-25T08:47:54.009Z,3.45
2023-02-25T08:48:54.425Z,3.46
2023-02-25T08:49:53.736Z,3.46
2023-02-25T08:50:54.105Z,3.50
2023-02-25T08:51:54.716Z,3.54
2023-02-25T08:52:53.800Z,3.56
2023-02-25T08:53:54.184Z,3.56
2023-02-25T08:54:53.534Z,3.59
2023-02-25T08:55:53.901Z,3.62
2023-02-25T08:56:55.135Z,3.64
2023-02-25T08:57:53.672Z,3.64
2023-02-25T08:58:54.939Z,3.62
2023-02-25T08:59:55.314Z,3.64
2023-02-25T09:00:53.752Z,3.62
2023-02-25T09:01:54.089Z,3.62
2023-02-25T09:02:53.405Z,3.63
2023-02-25T09:03:53.896Z,3.63
2023-02-25T09:04:54.189Z,3.64
2023-02-25T09:05:54.443Z,3.68
2023-02-25T09:06:53.835Z,3.68
2023-02-25T09:07:54.202Z,3.64
2023-02-25T09:08:54.465Z,3.67
2023-02-25T09:09:54.122Z,3.67
2023-02-25T09:10:54.189Z,3.70
2023-02-25T09:11:54.522Z,3.71
2023-02-25T09:12:53.970Z,3.77
2023-02-25T09:13:54.244Z,3.78
2023-02-25T09:14:53.669Z,3.80
2023-02-25T09:15:54.133Z,3.80
2023-02-25T09:16:53.422Z,3.80
2023-02-25T09:17:53.695Z,3.82
2023-02-25T09:18:54.038Z,3.84
2023-02-25T09:19:53.347Z,3.86
2023-02-25T09:20:53.708Z,3.86
2023-02-25T09:21:54.085Z,3.89
2023-02-25T09:22:56.571Z,3.86
2023-02-25T09:23:53.705Z,3.88
2023-02-25T09:24:54.051Z,3.82
2023-02-25T09:25:53.373Z,3.78
2023-02-25T09:26:53.716Z,3.80
2023-02-25T09:27:53.093Z,3.78
2023-02-25T09:28:53.407Z,3.77
2023-02-25T09:29:53.737Z,3.74
2023-02-25T09:30:53.170Z,3.71
2023-02-25T09:31:53.496Z,3.70
2023-02-25T09:32:53.996Z,3.67
2023-02-25T09:33:53.068Z,3.64
2023-02-25T09:34:54.359Z,3.68
2023-02-25T09:35:53.783Z,3.60
2023-02-25T09:36:53.106Z,3.54
2023-02-25T09:37:53.472Z,3.52
2023-02-25T09:38:53.905Z,3.42
2023-02-25T09:39:53.169Z,3.33
2023-02-25T09:40:53.554Z,3.23
2023-02-25T09:41:55.705Z,3.13
2023-02-25T09:42:53.269Z,3.07
2023-02-25T09:43:53.634Z,2.99
2023-02-25T09:44:53.032Z,2.97
2023-02-25T09:45:53.417Z,2.98
2023-02-25T09:46:52.764Z,2.98
2023-02-25T09:47:53.271Z,2.97
2023-02-25T09:48:53.523Z,2.98
2023-02-25T09:49:53.941Z,2.99
2023-02-25T09:50:53.266Z,2.97
2023-02-25T09:51:53.629Z,2.97
2023-02-25T09:52:53.898Z,2.99
2023-02-25T09:53:54.285Z,2.99
2023-02-25T09:54:52.666Z,3.01
2023-02-25T09:55:54.006Z,3.01
2023-02-25T09:56:53.546Z,3.02
2023-02-25T09:57:53.718Z,3.07
2023-02-25T09:58:53.152Z,3.07
2023-02-25T09:59:54.495Z,3.02
2023-02-25T10:00:55.518Z,3.07
2023-02-25T10:01:53.303Z,3.04
2023-02-25T10:02:52.783Z,3.08
2023-02-25T10:03:53.909Z,3.10
2023-02-25T10:04:53.328Z,3.08
2023-02-25T10:05:52.727Z,3.08
2023-02-25T10:06:53.121Z,3.08
2023-02-25T10:07:53.500Z,3.10
2023-02-25T10:08:52.794Z,3.13
2023-02-25T10:09:53.181Z,3.16
2023-02-25T10:10:52.537Z,3.19
2023-02-25T10:11:57.706Z,3.19
2023-02-25T10:12:53.296Z,3.19
2023-02-25T10:13:52.950Z,3.20
2023-02-25T10:14:53.000Z,3.23
2023-02-25T10:15:53.439Z,3.25
2023-02-25T10:16:52.743Z,3.26
2023-02-25T10:17:53.114Z,3.31
2023-02-25T10:18:53.540Z,3.31
2023-02-25T10:19:53.784Z,3.33
2023-02-25T10:20:54.168Z,3.33
2023-02-25T10:21:53.480Z,3.39
2023-02-25T10:22:53.875Z,3.39
2023-02-25T10:23:54.217Z,3.41
2023-02-25T10:24:52.697Z,3.42
2023-02-25T10:25:53.910Z,3.42
2023-02-25T10:26:53.225Z,3.42
2023-02-25T10:27:53.591Z,3.42
2023-02-25T10:28:53.014Z,3.41
2023-02-25T10:29:52.374Z,3.42
2023-02-25T10:30:53.242Z,3.37
2023-02-25T10:31:53.294Z,3.39
2023-02-25T10:32:52.502Z,3.41
2023-02-25T10:33:52.822Z,3.42
2023-02-25T10:34:52.144Z,3.41
2023-02-25T10:35:52.499Z,3.37
2023-02-25T10:36:52.940Z,3.35
2023-02-25T10:37:52.210Z,3.34
2023-02-25T10:38:52.602Z,3.35
2023-02-25T10:39:53.934Z,3.35
2023-02-25T10:40:52.294Z,3.37
2023-02-25T10:41:53.653Z,3.37
2023-02-25T10:42:53.078Z,3.42
2023-02-25T10:43:52.377Z,3.39
2023-02-25T10:44:53.688Z,3.41
2023-02-25T10:45:52.153Z,3.44
2023-02-25T10:46:53.418Z,3.50
2023-02-25T10:47:52.825Z,3.54
2023-02-25T10:48:52.271Z,3.57
2023-02-25T10:49:53.499Z,3.60
2023-02-25T10:50:53.888Z,3.67
2023-02-25T10:51:52.240Z,3.78
2023-02-25T10:52:52.628Z,3.90
2023-02-25T10:53:52.904Z,4.00
2023-02-25T10:54:52.445Z,4.10
2023-02-25T10:55:56.547Z,4.17
2023-02-25T10:56:52.073Z,4.18
2023-02-25T10:57:53.369Z,4.31
2023-02-25T10:58:52.819Z,4.32
2023-02-25T10:59:52.162Z,4.34
2023-02-25T11:00:52.558Z,4.43
2023-02-25T11:01:51.855Z,4.35
2023-02-25T11:02:52.263Z,4.36
2023-02-25T11:03:52.539Z,4.38
2023-02-25T11:04:51.858Z,4.36
2023-02-25T11:05:52.224Z,4.42
2023-02-25T11:06:52.625Z,4.43
2023-02-25T11:07:52.799Z,4.49
2023-02-25T11:08:53.183Z,4.53
2023-02-25T11:09:53.523Z,4.56
2023-02-25T11:10:51.838Z,4.64
2023-02-25T11:11:53.139Z,4.64
2023-02-25T11:12:52.709Z,4.65
2023-02-25T11:13:51.854Z,4.64
2023-02-25T11:14:53.139Z,4.57
2023-02-25T11:15:52.567Z,4.54
2023-02-25T11:16:51.839Z,4.49
2023-02-25T11:17:52.203Z,4.51
2023-02-25T11:18:51.965Z,4.54
2023-02-25T11:19:51.895Z,4.57
2023-02-25T11:20:52.243Z,4.65
2023-02-25T11:21:52.521Z,4.69
2023-02-25T11:22:51.981Z,4.74
2023-02-25T11:23:52.318Z,4.75
2023-02-25T11:24:51.641Z,4.74
2023-02-25T11:25:52.163Z,4.69
2023-02-25T11:26:53.454Z,4.64
2023-02-25T11:27:51.889Z,4.62
2023-02-25T11:28:53.004Z,4.59
2023-02-25T11:29:51.404Z,4.57
2023-02-25T11:30:52.859Z,4.50
2023-02-25T11:31:52.488Z,4.50
2023-02-25T11:32:51.481Z,4.49
2023-02-25T11:33:52.824Z,4.46
2023-02-25T11:34:52.151Z,4.44
2023-02-25T11:35:51.449Z,4.39
2023-02-25T11:36:51.789Z,4.36
2023-02-25T11:37:52.138Z,4.36
2023-02-25T11:38:51.465Z,4.34
2023-02-25T11:39:51.803Z,4.35
2023-02-25T11:40:52.167Z,4.34
2023-02-25T11:41:52.433Z,4.32
2023-02-25T11:42:51.843Z,4.36
2023-02-25T11:43:53.166Z,4.31
2023-02-25T11:44:52.494Z,4.31
2023-02-25T11:45:51.962Z,4.29
2023-02-25T11:46:51.257Z,4.38
2023-02-25T11:47:51.600Z,4.46
2023-02-25T11:48:51.969Z,4.53
2023-02-25T11:49:51.303Z,4.56
2023-02-25T11:50:51.670Z,4.62
2023-02-25T11:51:52.206Z,4.65
2023-02-25T11:52:51.321Z,4.69
2023-02-25T11:53:52.811Z,4.72
2023-02-25T11:54:52.941Z,4.68
2023-02-25T11:55:51.286Z,4.75
2023-02-25T11:56:51.618Z,4.75
2023-02-25T11:57:52.053Z,4.75
2023-02-25T11:58:51.289Z,4.77
2023-02-25T11:59:51.581Z,4.75
2023-02-25T12:00:51.931Z,4.77
2023-02-25T12:01:51.225Z,4.77
2023-02-25T12:02:51.589Z,4.79
2023-02-25T12:03:52.007Z,4.83
2023-02-25T12:04:51.220Z,4.86
2023-02-25T12:05:51.541Z,4.90
2023-02-25T12:06:52.795Z,4.94
2023-02-25T12:08:11.850Z,5.02
2023-02-25T12:08:52.566Z,5.06
2023-02-25T12:09:51.817Z,5.11
2023-02-25T12:10:51.146Z,5.12
2023-02-25T12:11:52.490Z,5.15
2023-02-25T12:12:51.818Z,5.14
2023-02-25T12:13:52.228Z,5.01
2023-02-25T12:14:51.608Z,4.87
2023-02-25T12:15:50.849Z,4.79
2023-02-25T12:16:52.169Z,4.65
2023-02-25T12:17:51.531Z,4.50
2023-02-25T12:18:50.823Z,4.49
2023-02-25T12:19:52.094Z,4.46
2023-02-25T12:20:51.796Z,4.39
2023-02-25T12:21:51.807Z,4.36
2023-02-25T12:22:51.165Z,4.35
2023-02-25T12:23:51.539Z,4.29
2023-02-25T12:24:50.840Z,4.24
2023-02-25T12:25:51.241Z,4.25
2023-02-25T12:26:51.568Z,4.24
2023-02-25T12:27:50.821Z,4.13
2023-02-25T12:28:51.181Z,4.02
2023-02-25T12:29:51.496Z,3.93
2023-02-25T12:30:50.852Z,3.81
2023-02-25T12:31:51.233Z,3.77
2023-02-25T12:32:51.721Z,3.74
2023-02-25T12:33:51.485Z,3.75
2023-02-25T12:34:51.229Z,3.75
2023-02-25T12:35:50.545Z,3.71
2023-02-25T12:36:50.908Z,3.72
2023-02-25T12:37:56.240Z,3.80
2023-02-25T12:38:50.665Z,3.84
2023-02-25T12:39:50.885Z,3.89
2023-02-25T12:40:52.175Z,3.95
2023-02-25T12:41:50.535Z,4.00
2023-02-25T12:42:51.832Z,4.08
2023-02-25T12:43:51.245Z,4.17
2023-02-25T12:44:50.567Z,4.16
2023-02-25T12:45:51.905Z,4.18
2023-02-25T12:46:51.204Z,4.10
2023-02-25T12:47:51.437Z,4.11
2023-02-25T12:48:51.804Z,4.11
2023-02-25T12:49:51.315Z,4.14
2023-02-25T12:50:50.475Z,4.16
2023-02-25T12:51:51.773Z,4.18
2023-02-25T12:52:51.170Z,4.24
2023-02-25T12:53:50.454Z,4.26
2023-02-25T12:54:50.769Z,4.28
2023-02-25T12:55:52.199Z,4.25
2023-02-25T12:56:50.407Z,4.25
2023-02-25T12:57:50.786Z,4.26
2023-02-25T12:58:51.406Z,4.25
2023-02-25T12:59:50.361Z,4.20
2023-02-25T13:00:51.662Z,4.21
2023-02-25T13:01:51.061Z,4.18
2023-02-25T13:02:50.370Z,4.13
2023-02-25T13:03:52.735Z,4.11
2023-02-25T13:04:50.981Z,4.13
2023-02-25T13:05:50.432Z,4.16
2023-02-25T13:06:50.650Z,4.16
2023-02-25T13:07:51.015Z,4.20
2023-02-25T13:08:50.286Z,4.25
2023-02-25T13:09:50.616Z,4.28
2023-02-25T13:10:50.958Z,4.32
2023-02-25T13:12:10.596Z,4.31
2023-02-25T13:12:51.647Z,4.32
2023-02-25T13:13:51.946Z,4.32
2023-02-25T13:14:50.251Z,4.32
2023-02-25T13:15:52.879Z,4.36
2023-02-25T13:16:50.991Z,4.38
2023-02-25T13:17:50.249Z,4.39